Time;durP1;ratioP1;P1;durP2;ratioP2;P2;SDS_P1;SDS_P2;PMS_P1;PMS_P2;Temp;Humidity;BMP_temperature;BMP_pressure;BME280_temperature;BME280_humidity;BME280_pressure;Samples;Min_cycle;Max_cycle;Signal;HPM_P1;HPM_P2
2022/07/12 00:02:25;;;;;;;7.05;1.38;;;;;;;24.98;48.07;101645.19;5035798;28;20049;-64
2022/07/12 00:04:53;;;;;;;4.20;0.93;;;;;;;24.90;48.34;101645.47;5020484;28;20049;-64
2022/07/12 00:07:20;;;;;;;7.68;1.05;;;;;;;24.87;48.98;101647.06;5016710;28;20058;-63
2022/07/12 00:09:48;;;;;;;4.78;1.20;;;;;;;24.82;49.15;101638.16;5030713;28;20050;-64
2022/07/12 00:12:15;;;;;;;3.88;0.85;;;;;;;24.97;48.46;101639.91;5028778;28;20062;-64
2022/07/12 00:14:42;;;;;;;4.15;1.00;;;;;;;24.83;48.74;101634.94;5021442;28;20049;-63
2022/07/12 00:17:10;;;;;;;5.18;1.10;;;;;;;24.76;49.06;101632.06;5043162;28;20061;-63
2022/07/12 00:19:37;;;;;;;5.45;1.30;;;;;;;24.91;48.49;101639.47;5030656;28;20053;-63
2022/07/12 00:22:04;;;;;;;9.05;1.33;;;;;;;24.94;48.72;101637.88;5035266;28;20072;-63
2022/07/12 00:24:32;;;;;;;3.60;1.20;;;;;;;25.16;48.20;101639.66;5034423;28;20056;-62
2022/07/12 00:26:59;;;;;;;2.90;1.20;;;;;;;25.10;48.39;101641.25;5035709;28;20058;-63
2022/07/12 00:29:26;;;;;;;2.33;0.90;;;;;;;24.75;49.03;101638.91;5047982;28;20053;-63
2022/07/12 00:31:54;;;;;;;9.25;1.10;;;;;;;24.80;48.77;101644.19;5025935;28;20072;-63
2022/07/12 00:34:21;;;;;;;4.20;1.40;;;;;;;24.81;48.98;101640.16;5035565;28;20056;-63
2022/07/12 00:36:48;;;;;;;7.60;0.82;;;;;;;24.86;48.70;101650.28;5050989;28;20057;-63
2022/07/12 00:39:15;;;;;;;4.75;0.93;;;;;;;24.61;49.82;101646.38;5037499;28;20066;-63
2022/07/12 00:41:43;;;;;;;4.20;1.20;;;;;;;24.62;49.79;101636.72;5025483;28;20548;-63
2022/07/12 00:44:10;;;;;;;2.55;1.05;;;;;;;24.73;49.36;101632.03;5028825;28;20034;-63
2022/07/12 00:46:37;;;;;;;3.60;1.10;;;;;;;24.75;49.25;101630.44;5021457;28;20401;-63
2022/07/12 00:49:05;;;;;;;4.13;1.05;;;;;;;24.65;49.57;101633.94;5035491;28;20432;-63
2022/07/12 00:51:33;;;;;;;2.28;1.02;;;;;;;24.66;49.68;101631.91;5020730;28;20421;-63
2022/07/12 00:54:00;;;;;;;4.80;1.20;;;;;;;24.71;49.61;101629.59;5004938;28;20050;-63
2022/07/12 00:56:27;;;;;;;5.15;1.10;;;;;;;24.80;49.08;101630.09;5027124;28;20046;-64
2022/07/12 00:58:55;;;;;;;3.65;0.95;;;;;;;24.67;49.40;101627.94;5028270;28;20045;-63
2022/07/12 01:01:23;;;;;;;4.72;1.02;;;;;;;24.69;49.49;101631.16;5021047;28;20064;-64
2022/07/12 01:03:52;;;;;;;3.42;1.10;;;;;;;24.80;49.44;101620.81;5028443;28;20064;-63
2022/07/12 01:06:20;;;;;;;10.68;1.40;;;;;;;24.68;49.77;101627.53;5020741;28;20053;-63
2022/07/12 01:08:48;;;;;;;5.95;1.50;;;;;;;24.61;49.74;101623.81;5030262;28;20049;-64
2022/07/12 01:11:16;;;;;;;2.13;0.90;;;;;;;24.69;49.94;101623.53;5028438;28;20053;-64
2022/07/12 01:13:44;;;;;;;3.55;1.30;;;;;;;24.80;49.37;101620.81;5029258;28;20057;-64
2022/07/12 01:16:14;;;;;;;2.45;1.17;;;;;;;24.90;49.35;101631.38;5037393;28;20049;-64
2022/07/12 01:18:44;;;;;;;8.27;1.38;;;;;;;24.85;49.74;101629.75;5033953;28;20053;-64
2022/07/12 01:21:12;;;;;;;;;;;;;;;24.80;49.19;101626.47;5027121;28;20053;-64
2022/07/12 01:23:40;;;;;;;4.43;1.25;;;;;;;24.66;50.05;101638.38;5029457;28;20296;-63
2022/07/12 01:26:07;;;;;;;2.53;1.30;;;;;;;24.72;49.98;101633.22;5023185;28;20054;-64
2022/07/12 01:28:34;;;;;;;2.97;1.15;;;;;;;24.85;49.57;101632.56;5066224;28;20053;-63
2022/07/12 01:31:02;;;;;;;3.60;1.20;;;;;;;25.00;49.59;101625.06;5026815;28;20053;-63
2022/07/12 01:33:30;;;;;;;2.38;1.10;;;;;;;25.02;49.33;101629.09;5024930;28;20045;-64
2022/07/12 01:35:58;;;;;;;3.00;1.10;;;;;;;24.91;49.36;101614.09;5023123;28;20081;-64
2022/07/12 01:38:25;;;;;;;3.72;1.38;;;;;;;24.71;49.71;101617.50;5040909;28;20375;-64
2022/07/12 01:40:52;;;;;;;2.92;1.30;;;;;;;24.45;50.43;101607.16;5047672;28;20053;-64
2022/07/12 01:43:19;;;;;;;4.93;1.23;;;;;;;24.55;50.51;101614.13;5035803;28;20521;-64
2022/07/12 01:45:47;;;;;;;5.72;1.20;;;;;;;24.56;50.55;101613.72;5045858;28;20049;-63
2022/07/12 01:48:14;;;;;;;2.78;1.25;;;;;;;24.73;49.78;101612.31;5015921;28;20065;-63
2022/07/12 01:50:42;;;;;;;4.82;1.00;;;;;;;24.60;50.26;101613.75;5020228;28;20495;-64
2022/07/12 01:53:11;;;;;;;2.13;1.00;;;;;;;24.49;50.62;101611.66;5024959;28;20496;-64
2022/07/12 01:55:38;;;;;;;2.95;1.45;;;;;;;24.47;50.62;101618.84;5031904;28;20461;-63
2022/07/12 01:58:06;;;;;;;2.65;1.20;;;;;;;24.49;50.80;101624.91;5055515;28;20058;-67
2022/07/12 02:00:33;;;;;;;3.80;1.35;;;;;;;24.59;50.31;101620.56;5032275;28;20492;-68
2022/07/12 02:03:01;;;;;;;2.05;1.02;;;;;;;24.62;50.40;101619.81;5016739;28;20058;-68
2022/07/12 02:05:28;;;;;;;3.05;1.10;;;;;;;24.75;50.11;101610.72;5022526;28;20038;-66
2022/07/12 02:07:56;;;;;;;7.32;1.35;;;;;;;24.79;50.41;101617.22;5024039;28;20053;-63
2022/07/12 02:10:23;;;;;;;4.57;1.27;;;;;;;24.96;49.90;101612.94;5064204;28;20053;-63
2022/07/12 02:12:50;;;;;;;2.05;1.20;;;;;;;24.74;49.99;101619.56;5028645;28;20057;-64
2022/07/12 02:15:18;;;;;;;3.17;1.35;;;;;;;24.79;50.42;101624.84;5015150;28;20073;-63
2022/07/12 02:17:47;;;;;;;6.45;1.50;;;;;;;24.69;50.10;101622.72;5025184;28;20065;-63
2022/07/12 02:20:14;;;;;;;2.17;1.05;;;;;;;24.57;50.17;101622.97;5028796;28;20060;-62
2022/07/12 02:22:42;;;;;;;3.28;1.20;;;;;;;24.63;50.34;101621.44;5026222;28;20054;-62
2022/07/12 02:25:09;;;;;;;2.97;1.30;;;;;;;24.41;50.69;101618.38;5031758;28;20045;-63
2022/07/12 02:27:39;;;;;;;6.63;1.40;;;;;;;24.55;50.71;101623.34;5020477;28;20088;-63
2022/07/12 02:30:08;;;;;;;2.35;1.15;;;;;;;24.64;50.39;101612.59;5029971;28;20062;-67
2022/07/12 02:32:36;;;;;;;6.07;1.60;;;;;;;24.53;50.48;101618.13;5027471;28;20050;-67
2022/07/12 02:35:07;;;;;;;3.80;1.35;;;;;;;24.29;50.98;101618.66;5034186;28;20051;-67
2022/07/12 02:37:34;;;;;;;4.70;1.50;;;;;;;24.32;51.16;101617.88;5030490;28;20068;-67
2022/07/12 02:42:48;;;;;;;4.78;1.70;;;;;;;24.41;50.59;101618.38;5027696;28;20638;-66
2022/07/12 02:45:16;;;;;;;4.25;1.50;;;;;;;24.15;51.54;101612.84;5036644;28;20048;-67
2022/07/12 02:47:43;;;;;;;4.80;1.48;;;;;;;24.05;51.85;101616.34;5037430;28;20041;-66
2022/07/12 02:50:11;;;;;;;4.15;1.40;;;;;;;24.12;51.98;101619.25;5024035;28;20060;-67
2022/07/12 02:52:38;;;;;;;8.07;1.30;;;;;;;24.07;51.83;101619.59;5037026;28;20069;-67
2022/07/12 02:55:06;;;;;;;4.78;1.58;;;;;;;24.00;51.82;101627.13;5020621;28;20046;-66
2022/07/12 02:57:33;;;;;;;4.18;1.60;;;;;;;23.98;51.89;101635.09;5021457;28;20060;-67
2022/07/12 03:00:00;;;;;;;6.60;1.30;;;;;;;23.85;52.38;101628.91;5028573;28;20068;-67
2022/07/12 03:02:28;;;;;;;4.85;1.30;;;;;;;23.82;52.64;101634.47;5036280;28;20536;-66
2022/07/12 03:04:55;;;;;;;3.67;1.35;;;;;;;23.92;52.30;101634.63;5035936;28;20049;-67
2022/07/12 03:07:22;;;;;;;8.32;1.40;;;;;;;23.90;52.51;101633.41;5032178;28;20389;-67
2022/07/12 03:09:50;;;;;;;4.30;1.48;;;;;;;23.85;52.48;101636.56;5028401;28;20072;-67
2022/07/12 03:12:17;;;;;;;6.30;1.30;;;;;;;24.07;52.01;101636.50;5023991;28;20060;-63
2022/07/12 03:14:44;;;;;;;4.03;1.60;;;;;;;24.11;51.88;101631.69;5040406;28;20046;-67
2022/07/12 03:17:12;;;;;;;4.60;1.38;;;;;;;24.19;51.54;101633.41;5031513;28;20134;-67
2022/07/12 03:19:39;;;;;;;3.03;1.20;;;;;;;24.17;51.70;101638.63;5027828;28;20049;-63
2022/07/12 03:22:06;;;;;;;4.82;1.25;;;;;;;24.26;51.44;101633.50;5035482;28;20046;-68
2022/07/12 03:24:34;;;;;;;7.03;1.30;;;;;;;24.23;51.42;101630.66;5022555;28;20054;-67
2022/07/12 03:27:03;;;;;;;3.88;1.58;;;;;;;24.20;51.38;101632.22;5038232;28;20049;-66
2022/07/12 03:29:30;;;;;;;5.90;1.43;;;;;;;24.10;51.44;101634.88;5022411;28;20049;-66
2022/07/12 03:31:57;;;;;;;5.35;1.33;;;;;;;24.04;52.21;101630.81;5034915;28;20813;-67
2022/07/12 03:34:25;;;;;;;6.13;1.58;;;;;;;24.09;51.99;101636.09;5023692;28;20053;-67
2022/07/12 03:36:52;;;;;;;3.67;1.55;;;;;;;24.09;51.85;101628.47;5015351;28;20049;-63
2022/07/12 03:39:20;;;;;;;5.10;1.60;;;;;;;24.19;51.58;101635.41;5029993;28;20053;-65
2022/07/12 03:41:47;;;;;;;5.63;1.70;;;;;;;24.22;51.54;101643.09;5003859;28;20497;-63
2022/07/12 03:44:14;;;;;;;4.38;1.60;;;;;;;24.17;51.50;101640.63;5032001;28;20037;-66
2022/07/12 03:46:42;;;;;;;5.35;1.65;;;;;;;24.18;51.69;101640.22;5035363;28;20046;-65
2022/07/12 03:49:09;;;;;;;7.72;1.50;;;;;;;24.03;51.84;101637.63;5020834;28;20053;-63
2022/07/12 03:51:36;;;;;;;8.02;1.42;;;;;;;23.92;52.12;101643.06;5033177;28;20199;-66
2022/07/12 03:54:07;;;;;;;3.63;1.48;;;;;;;24.19;51.59;101646.69;5028144;28;20056;-63
2022/07/12 03:59:21;;;;;;;3.53;1.48;;;;;;;24.05;51.68;101647.31;5029709;28;20053;-67
2022/07/12 04:01:48;;;;;;;5.25;1.67;;;;;;;24.02;51.53;101642.47;5031060;28;20111;-64
2022/07/12 04:04:15;;;;;;;4.47;1.52;;;;;;;24.10;52.05;101652.59;5027154;28;20083;-67
2022/07/12 04:06:43;;;;;;;4.53;1.90;;;;;;;24.17;51.23;101660.31;5029382;28;20057;-66
2022/07/12 04:09:11;;;;;;;6.72;1.80;;;;;;;24.15;51.42;101657.91;5044717;28;20065;-67
2022/07/12 04:11:38;;;;;;;4.05;1.50;;;;;;;24.06;51.79;101659.38;5033240;28;20053;-63
2022/07/12 04:14:06;;;;;;;7.13;1.80;;;;;;;24.12;51.61;101658.66;5035017;28;20057;-66
2022/07/12 04:16:33;;;;;;;4.25;1.92;;;;;;;24.07;51.80;101663.81;5034286;28;20081;-63
2022/07/12 04:19:00;;;;;;;3.95;1.77;;;;;;;23.96;51.83;101668.44;5026183;28;20060;-65
2022/07/12 04:21:27;;;;;;;5.65;1.70;;;;;;;23.65;52.56;101666.00;5042839;28;20052;-66
2022/07/12 04:23:55;;;;;;;4.38;1.75;;;;;;;23.77;52.44;101668.56;5036318;28;20076;-67
2022/07/12 04:26:22;;;;;;;4.38;1.77;;;;;;;23.85;52.20;101671.13;5049819;28;20041;-67
2022/07/12 04:28:49;;;;;;;4.15;1.65;;;;;;;23.87;52.11;101668.72;5022353;28;20065;-66
2022/07/12 04:31:24;;;;;;;7.53;2.00;;;;;;;23.54;52.90;101668.63;5035518;28;20049;-67
2022/07/12 04:33:52;;;;;;;4.90;1.75;;;;;;;23.79;52.25;101664.22;5035617;28;20053;-66
2022/07/12 04:36:19;;;;;;;4.70;1.90;;;;;;;23.69;52.56;101673.31;5021921;28;20049;-66
2022/07/12 04:38:46;;;;;;;5.88;1.90;;;;;;;23.49;53.32;101674.59;5034730;28;20058;-66
2022/07/12 04:41:16;;;;;;;5.57;1.88;;;;;;;23.73;52.67;101670.56;5022032;28;20057;-63
2022/07/12 04:43:50;;;;;;;6.00;2.67;;;;;;;23.96;52.06;101660.81;5035233;28;20057;-67
2022/07/12 04:46:17;;;;;;;7.95;3.80;;;;;;;23.87;52.36;101665.13;5021947;28;20049;-63
2022/07/12 04:48:45;;;;;;;3.85;2.10;;;;;;;23.77;52.60;101665.75;5023792;28;20054;-64
2022/07/12 04:51:14;;;;;;;5.47;2.30;;;;;;;23.62;53.08;101670.38;5065325;28;20057;-67
2022/07/12 04:53:42;;;;;;;7.25;2.25;;;;;;;23.57;53.08;101679.16;5035226;28;20056;-63
2022/07/12 04:56:09;;;;;;;6.25;2.28;;;;;;;23.72;53.01;101677.34;5027395;28;20420;-64
2022/07/12 04:58:37;;;;;;;6.38;2.70;;;;;;;23.81;52.64;101681.53;5030973;28;20049;-67
2022/07/12 05:01:04;;;;;;;6.50;3.20;;;;;;;23.81;52.34;101691.97;5022416;28;20484;-63
2022/07/12 05:03:31;;;;;;;6.32;2.75;;;;;;;23.62;52.91;101683.63;5027426;28;20061;-67
2022/07/12 05:05:59;;;;;;;6.30;2.60;;;;;;;23.77;52.91;101679.84;5020414;28;20541;-63
2022/07/12 05:08:26;;;;;;;5.50;2.83;;;;;;;23.62;53.01;101683.63;5033272;28;20068;-63
2022/07/12 05:10:53;;;;;;;5.20;2.28;;;;;;;23.71;53.05;101684.97;5037229;28;20050;-62
2022/07/12 05:13:21;;;;;;;5.78;2.80;;;;;;;23.75;53.07;101690.66;5034562;28;20682;-66
2022/07/12 05:15:48;;;;;;;7.28;2.92;;;;;;;23.76;53.14;101690.31;5022787;28;20052;-67
2022/07/12 05:18:15;;;;;;;5.10;2.58;;;;;;;23.55;53.60;101689.97;5015543;28;20070;-64
2022/07/12 05:20:44;;;;;;;5.15;2.45;;;;;;;23.69;53.23;101695.81;5046113;28;20057;-68
2022/07/12 05:23:18;;;;;;;5.78;2.70;;;;;;;23.73;52.64;101707.13;5034512;28;20050;-63
2022/07/12 05:25:46;;;;;;;8.32;2.90;;;;;;;23.77;52.81;101710.78;5032721;28;20632;-63
2022/07/12 05:28:15;;;;;;;8.70;2.88;;;;;;;23.61;52.84;101698.88;5025627;28;20053;-64
2022/07/12 05:30:43;;;;;;;6.85;2.88;;;;;;;23.97;52.66;101709.50;5034309;28;20050;-63
2022/07/12 05:33:13;;;;;;;7.95;3.47;;;;;;;24.18;52.04;101704.97;5025285;28;20049;-63
2022/07/12 05:35:41;;;;;;;9.60;3.15;;;;;;;24.24;51.68;101705.47;5032835;28;20049;-64
2022/07/12 05:38:08;;;;;;;7.32;3.45;;;;;;;24.27;51.33;101715.97;5050081;28;20060;-63
2022/07/12 05:40:36;;;;;;;5.45;3.35;;;;;;;24.30;51.56;101716.00;5029662;28;20076;-64
2022/07/12 05:43:03;;;;;;;12.05;3.70;;;;;;;24.02;51.79;101714.81;5036083;28;20038;-64
2022/07/12 05:45:30;;;;;;;8.32;3.95;;;;;;;24.21;51.75;101723.13;5027672;28;20046;-63
2022/07/12 05:47:58;;;;;;;7.00;3.40;;;;;;;24.32;51.19;101718.47;5014455;28;20046;-63
2022/07/12 05:50:25;;;;;;;6.22;3.15;;;;;;;24.18;51.23;101721.88;5025274;28;20428;-63
2022/07/12 05:55:39;;;;;;;9.45;3.53;;;;;;;24.30;51.68;101721.63;5034477;28;20049;-67
2022/07/12 05:58:06;;;;;;;10.38;3.58;;;;;;;24.25;51.56;101727.59;5034374;28;20057;-66
2022/07/12 06:00:33;;;;;;;8.48;3.95;;;;;;;24.38;51.35;101723.38;5033524;28;20045;-67
2022/07/12 06:03:01;;;;;;;8.30;4.20;;;;;;;24.43;51.20;101723.03;5032764;28;20062;-67
2022/07/12 06:05:28;;;;;;;7.18;4.22;;;;;;;24.19;51.51;101736.78;5022160;28;20049;-63
2022/07/12 06:07:55;;;;;;;7.32;3.70;;;;;;;24.29;51.50;101733.28;5029950;28;20516;-65
2022/07/12 06:10:23;;;;;;;13.73;4.03;;;;;;;24.14;51.54;101735.13;5031946;28;20058;-67
2022/07/12 06:12:50;;;;;;;8.57;3.67;;;;;;;24.32;52.08;101736.16;5026136;28;20053;-62
2022/07/12 06:15:18;;;;;;;10.13;4.13;;;;;;;24.56;51.86;101734.88;5034415;28;20065;-64
2022/07/12 06:17:45;;;;;;;9.27;5.00;;;;;;;24.38;51.98;101729.00;5036305;28;20082;-66
2022/07/12 06:20:13;;;;;;;10.63;5.10;;;;;;;24.16;52.45;101743.19;5035656;28;20048;-64
2022/07/12 06:22:40;;;;;;;12.48;4.40;;;;;;;24.30;52.92;101738.53;5037078;28;20046;-64
2022/07/12 06:25:08;;;;;;;12.57;4.60;;;;;;;24.43;51.97;101747.56;5032648;28;20053;-65
2022/07/12 06:27:56;;;;;;;13.80;5.10;;;;;;;24.28;51.75;101748.56;5034725;28;20049;-64
2022/07/12 06:30:23;;;;;;;9.75;4.50;;;;;;;24.16;51.62;101749.63;5046080;28;20061;-64
2022/07/12 06:32:50;;;;;;;11.05;4.22;;;;;;;24.10;52.13;101745.50;5020164;28;20060;-64
2022/07/12 06:35:18;;;;;;;14.85;4.25;;;;;;;23.95;52.42;101746.47;5037275;28;20477;-64
2022/07/12 06:37:45;;;;;;;11.30;4.35;;;;;;;23.87;53.05;101743.94;5024909;28;20061;-65
2022/07/12 06:40:16;;;;;;;10.55;5.30;;;;;;;24.08;52.55;101747.88;5037736;28;20515;-65
2022/07/12 06:42:44;;;;;;;9.93;4.40;;;;;;;24.37;52.17;101737.84;5028017;28;20562;-67
2022/07/12 06:45:11;;;;;;;9.38;4.10;;;;;;;24.03;51.80;101742.59;5037580;28;20408;-67
2022/07/12 06:47:38;;;;;;;8.45;4.10;;;;;;;24.15;52.74;101745.19;5039881;28;20038;-67
2022/07/12 06:50:06;;;;;;;13.25;4.75;;;;;;;24.16;52.91;101744.00;5038576;28;20539;-66
2022/07/12 06:52:35;;;;;;;12.45;5.60;;;;;;;24.51;50.52;101738.81;5030414;28;20049;-67
2022/07/12 06:55:02;;;;;;;11.02;5.25;;;;;;;24.10;51.43;101751.13;5044878;28;20432;-67
2022/07/12 06:57:30;;;;;;;10.70;4.30;;;;;;;23.87;52.20;101752.38;5046027;28;20044;-67
2022/07/12 06:59:57;;;;;;;10.15;5.47;;;;;;;23.97;51.95;101755.31;5033579;28;20528;-71
2022/07/12 07:02:25;;;;;;;12.57;5.13;;;;;;;23.94;51.74;101746.81;5040960;28;20049;-68
2022/07/12 07:04:53;;;;;;;11.57;5.03;;;;;;;23.66;52.49;101752.81;5043563;28;20439;-70
2022/07/12 07:07:20;;;;;;;8.77;4.80;;;;;;;23.80;52.35;101755.88;5030204;28;20049;-61
2022/07/12 07:09:47;;;;;;;12.65;4.90;;;;;;;23.64;53.06;101758.00;5045697;28;20072;-63
2022/07/12 07:12:15;;;;;;;9.40;4.50;;;;;;;23.68;53.05;101761.69;5040990;28;20546;-64
2022/07/12 07:14:42;;;;;;;11.40;4.63;;;;;;;23.99;51.97;101758.59;5044462;28;20076;-63
2022/07/12 07:17:09;;;;;;;15.43;5.15;;;;;;;23.71;52.18;101755.31;5037955;28;20037;-63
2022/07/12 07:19:37;;;;;;;21.23;5.40;;;;;;;23.56;53.20;101764.72;5030778;28;20060;-65
2022/07/12 07:22:04;;;;;;;14.52;4.85;;;;;;;23.87;52.62;101760.81;5029946;28;20551;-64
2022/07/12 07:24:32;;;;;;;14.23;4.82;;;;;;;23.88;52.58;101763.25;5037908;28;20061;-64
2022/07/12 07:26:59;;;;;;;16.15;5.00;;;;;;;24.10;52.15;101758.75;5039371;28;20045;-64
2022/07/12 07:32:13;;;;;;;12.60;5.32;;;;;;;24.55;50.86;101760.59;5024971;28;20054;-66
2022/07/12 07:34:41;;;;;;;11.52;5.15;;;;;;;25.10;50.17;101762.50;5036604;28;20060;-63
2022/07/12 07:37:09;;;;;;;11.15;5.07;;;;;;;25.56;48.76;101760.94;5036584;28;20049;-64
2022/07/12 07:39:36;;;;;;;12.43;5.20;;;;;;;25.52;48.91;101760.13;5040397;28;21018;-63
2022/07/12 07:42:04;;;;;;;9.55;5.28;;;;;;;25.64;47.11;101764.66;5034349;28;20598;-64
2022/07/12 07:44:31;;;;;;;14.38;5.55;;;;;;;25.58;48.25;101762.19;5041652;28;20068;-63
2022/07/12 07:47:00;;;;;;;14.93;4.93;;;;;;;25.82;47.21;101754.31;5038983;28;20042;-63
2022/07/12 07:49:27;;;;;;;11.07;4.70;;;;;;;26.24;46.71;101755.41;5041162;28;20053;-63
2022/07/12 07:51:55;;;;;;;13.43;4.90;;;;;;;26.74;45.94;101752.88;5049637;28;20057;-63
2022/07/12 07:54:22;;;;;;;14.68;4.70;;;;;;;26.65;45.83;101753.22;5047618;28;20057;-63
2022/07/12 07:56:49;;;;;;;19.60;4.55;;;;;;;26.60;45.07;101760.06;5036829;28;20048;-63
2022/07/12 07:59:16;;;;;;;13.45;4.65;;;;;;;26.53;45.32;101771.34;5042302;28;20041;-63
2022/07/12 08:01:52;;;;;;;9.13;4.50;;;;;;;26.87;44.83;101759.78;5036208;28;20053;-63
2022/07/12 08:04:20;;;;;;;6.50;4.10;;;;;;;26.96;43.51;101763.84;5028194;28;20606;-62
2022/07/12 08:06:49;;;;;;;9.63;3.92;;;;;;;26.84;44.19;101771.88;5044893;28;20048;-63
2022/07/12 08:09:16;;;;;;;9.88;4.03;;;;;;;27.16;43.04;101767.97;5037024;28;20049;-63
2022/07/12 08:11:44;;;;;;;9.63;4.10;;;;;;;27.31;43.01;101768.78;5032784;28;20060;-63
2022/07/12 08:14:11;;;;;;;13.38;4.63;;;;;;;27.44;42.82;101761.56;5037032;28;20071;-62
2022/07/12 08:16:39;;;;;;;13.20;4.60;;;;;;;27.37;43.04;101768.00;5029550;28;20049;-63
2022/07/12 08:19:07;;;;;;;16.35;4.70;;;;;;;27.52;42.37;101768.81;5024181;28;20645;-63
2022/07/12 08:21:35;;;;;;;11.82;4.40;;;;;;;27.61;42.51;101767.22;5038655;28;20053;-68
2022/07/12 08:24:02;;;;;;;11.52;4.00;;;;;;;27.81;41.64;101773.25;5044181;28;20048;-63
2022/07/12 08:26:30;;;;;;;10.88;3.63;;;;;;;27.43;42.39;101769.22;5035661;28;20493;-64
2022/07/12 08:28:57;;;;;;;11.75;4.20;;;;;;;27.65;42.02;101767.22;5020342;28;20044;-67
2022/07/12 08:31:24;;;;;;;11.63;4.15;;;;;;;27.68;42.26;101772.88;5032394;28;20053;-67
2022/07/12 08:33:52;;;;;;;11.80;3.60;;;;;;;27.57;41.76;101768.41;5042295;28;20050;-62
2022/07/12 08:36:19;;;;;;;15.55;6.65;;;;;;;27.12;43.44;101769.13;5035192;28;20047;-64
2022/07/12 08:38:46;;;;;;;19.77;9.05;;;;;;;27.20;42.24;101765.91;5039175;28;20048;-63
2022/07/12 08:41:14;;;;;;;11.10;3.40;;;;;;;26.61;42.98;101761.69;5029552;28;20492;-63
2022/07/12 08:43:42;;;;;;;6.03;3.20;;;;;;;26.64;43.12;101757.22;5038198;28;20060;-61
2022/07/12 08:46:11;;;;;;;11.10;3.17;;;;;;;26.88;42.66;101765.03;5045194;28;20048;-63
2022/07/12 08:48:40;;;;;;;10.52;3.40;;;;;;;27.12;42.47;101769.13;5041492;28;20397;-68
2022/07/12 08:51:12;;;;;;;12.07;3.30;;;;;;;27.33;42.33;101763.56;5033074;28;20054;-63
2022/07/12 08:53:40;;;;;;;7.18;3.13;;;;;;;27.73;41.66;101761.16;5063461;28;20069;-63
2022/07/12 08:56:35;;;;;;;6.05;2.28;;;;;;;27.53;41.40;101767.63;5031916;28;20054;-65
2022/07/12 08:59:16;;;;;;;8.45;2.30;;;;;;;27.32;40.98;101765.56;5025353;28;20056;-63
2022/07/12 09:01:50;;;;;;;4.72;2.08;;;;;;;27.24;41.20;101772.41;5027820;28;20049;-64
2022/07/12 09:04:27;;;;;;;5.50;2.15;;;;;;;27.24;41.96;101772.41;5028277;28;20052;-64
2022/07/12 09:06:54;;;;;;;8.73;2.50;;;;;;;26.98;41.35;101769.91;5026818;28;20041;-64
2022/07/12 09:09:36;;;;;;;8.13;2.22;;;;;;;27.11;41.86;101764.69;5039970;28;20053;-63
2022/07/12 09:12:03;;;;;;;8.27;2.50;;;;;;;27.15;41.75;101763.50;5044639;28;20061;-64
2022/07/12 09:14:31;;;;;;;6.50;2.30;;;;;;;27.23;41.23;101761.50;5034865;28;20425;-64
2022/07/12 09:17:13;;;;;;;5.75;2.22;;;;;;;27.37;40.43;101770.03;5040777;28;20037;-64
2022/07/12 09:19:54;;;;;;;5.15;2.50;;;;;;;27.17;40.21;101763.09;5042155;28;20493;-64
2022/07/12 09:22:21;;;;;;;7.60;1.95;;;;;;;27.45;40.02;101761.16;5035087;28;20070;-64
2022/07/12 09:24:49;;;;;;;10.25;2.25;;;;;;;27.41;39.65;101768.00;5034058;28;20053;-64
2022/07/12 09:27:16;;;;;;;5.53;2.13;;;;;;;27.50;38.91;101772.06;5005912;28;20046;-64
2022/07/12 09:29:48;;;;;;;4.88;2.10;;;;;;;27.84;38.54;101763.97;5049728;28;20058;-63
2022/07/12 09:37:51;;;;;;;7.55;2.35;;;;;;;27.34;38.21;101776.47;5041710;28;20045;-62
2022/07/12 09:40:20;;;;;;;6.55;2.30;;;;;;;27.54;38.60;101781.38;5034422;28;20060;-63
2022/07/12 09:42:48;;;;;;;9.43;2.40;;;;;;;27.23;37.85;101781.28;5029173;28;20049;-63
2022/07/12 09:45:17;;;;;;;5.07;2.10;;;;;;;27.39;37.33;101771.22;5031862;28;20053;-62
2022/07/12 09:47:45;;;;;;;5.22;1.90;;;;;;;27.45;36.29;101769.63;5038009;28;20056;-64
2022/07/12 09:50:13;;;;;;;6.20;1.80;;;;;;;27.51;36.15;101770.84;5039540;28;20071;-64
2022/07/12 09:52:41;;;;;;;7.15;2.38;;;;;;;27.90;36.42;101770.84;5035597;28;20770;-65
2022/07/12 09:55:10;;;;;;;2.85;1.50;;;;;;;27.87;35.26;101774.50;5047570;28;20504;-63
2022/07/12 09:57:40;;;;;;;4.60;2.03;;;;;;;27.56;35.01;101775.31;5036093;28;20375;-63
2022/07/12 10:00:11;;;;;;;3.80;1.60;;;;;;;27.53;35.01;101770.47;5051865;28;20057;-63
2022/07/12 10:02:39;;;;;;;4.97;1.73;;;;;;;27.36;35.07;101774.06;5044932;28;20076;-64
2022/07/12 10:05:08;;;;;;;9.00;2.10;;;;;;;27.61;34.90;101772.06;5043678;28;20385;-64
2022/07/12 10:07:37;;;;;;;3.95;1.48;;;;;;;27.72;34.69;101775.72;5036226;28;20057;-64
2022/07/12 10:10:05;;;;;;;8.05;1.90;;;;;;;27.36;34.65;101776.88;5072450;28;20412;-63
2022/07/12 10:12:34;;;;;;;7.13;2.80;;;;;;;27.65;35.21;101770.84;5034321;28;20065;-63
2022/07/12 10:15:04;;;;;;;9.07;2.05;;;;;;;28.01;35.32;101774.50;5045158;28;20385;-63
2022/07/12 10:17:32;;;;;;;5.38;2.10;;;;;;;27.93;35.51;101770.03;5021973;28;20046;-63
2022/07/12 10:20:23;;;;;;;3.85;1.92;;;;;;;28.13;34.96;101771.25;5053107;28;20073;-64
2022/07/12 10:22:54;;;;;;;3.95;1.45;;;;;;;28.05;31.99;101764.00;5036402;28;20068;-63
2022/07/12 10:25:32;;;;;;;5.15;1.70;;;;;;;28.18;31.44;101762.31;5043611;28;20064;-64
2022/07/12 10:28:02;;;;;;;6.53;2.65;;;;;;;28.04;30.88;101762.34;5017482;28;20046;-62
2022/07/12 10:30:30;;;;;;;7.03;2.92;;;;;;;27.87;33.27;101759.50;5041790;28;20516;-65
2022/07/12 10:32:59;;;;;;;4.65;2.50;;;;;;;28.45;32.96;101760.63;5034202;28;20048;-64
2022/07/12 10:35:31;;;;;;;4.80;2.42;;;;;;;28.37;32.78;101763.88;5035773;28;20053;-65
2022/07/12 10:38:19;;;;;;;6.90;2.60;;;;;;;28.44;33.46;101773.19;5021026;28;20046;-63
2022/07/12 10:40:47;;;;;;;3.90;1.90;;;;;;;28.55;33.07;101761.84;5062150;28;20053;-63
2022/07/12 10:43:16;;;;;;;5.95;1.90;;;;;;;28.42;33.68;101761.44;5056760;28;20542;-63
2022/07/12 10:45:44;;;;;;;4.88;1.90;;;;;;;28.93;32.92;101760.03;5038856;28;20050;-64
2022/07/12 10:48:15;;;;;;;6.47;2.20;;;;;;;29.15;32.97;101762.34;5045409;28;20052;-63
2022/07/12 10:50:45;;;;;;;7.68;2.47;;;;;;;29.14;33.05;101759.94;5038493;28;20510;-62
2022/07/12 10:53:22;;;;;;;6.18;2.35;;;;;;;29.21;33.00;101755.03;5032753;28;20050;-63
2022/07/12 10:56:03;;;;;;;7.53;3.00;;;;;;;29.36;32.62;101758.59;5040731;28;20404;-62
2022/07/12 10:58:54;;;;;;;7.97;2.20;;;;;;;28.86;32.61;101760.06;5041264;28;20041;-63
2022/07/12 11:01:26;;;;;;;4.85;1.90;;;;;;;28.40;32.70;101757.41;5058186;28;20167;-63
2022/07/12 11:03:55;;;;;;;5.00;1.77;;;;;;;28.47;32.86;101761.03;5026289;28;20054;-65
2022/07/12 11:06:24;;;;;;;8.73;2.28;;;;;;;28.84;32.51;101754.81;5039770;28;20064;-65
2022/07/12 11:09:02;;;;;;;8.18;2.38;;;;;;;29.27;32.10;101755.41;5048108;28;20041;-64
2022/07/12 11:11:44;;;;;;;8.20;2.55;;;;;;;29.53;31.29;101760.47;5032224;28;20045;-63
2022/07/12 11:14:13;;;;;;;7.32;2.15;;;;;;;29.07;30.95;101748.59;5040435;28;20060;-64
2022/07/12 11:16:45;;;;;;;7.82;2.10;;;;;;;28.86;30.15;101743.88;5036146;28;20059;-64
2022/07/12 11:19:13;;;;;;;11.27;2.55;;;;;;;28.86;29.88;101743.88;5022993;28;20045;-65
2022/07/12 11:21:44;;;;;;;6.55;1.90;;;;;;;28.88;28.67;101746.28;5029441;28;20049;-63
2022/07/12 11:24:16;;;;;;;4.57;1.83;;;;;;;28.88;27.72;101754.78;5031417;28;20056;-62
2022/07/12 11:26:43;;;;;;;4.88;1.52;;;;;;;28.98;27.30;101743.38;5032563;28;20049;-64
2022/07/12 11:29:11;;;;;;;6.38;1.83;;;;;;;29.03;26.75;101745.78;5033683;28;20045;-62
2022/07/12 11:31:39;;;;;;;4.95;1.67;;;;;;;29.19;27.26;101745.31;5041043;28;20049;-62
2022/07/12 11:34:06;;;;;;;4.15;1.67;;;;;;;29.36;27.51;101742.34;5030970;28;20050;-62
2022/07/12 11:36:34;;;;;;;8.55;1.95;;;;;;;29.09;27.50;101746.97;5025954;28;20053;-63
2022/07/12 11:39:01;;;;;;;7.47;2.20;;;;;;;29.07;27.46;101740.91;5026503;28;20053;-63
2022/07/12 11:41:28;;;;;;;4.65;1.95;;;;;;;29.27;26.96;101744.88;5026188;28;20053;-61
2022/07/12 11:43:56;;;;;;;6.78;1.77;;;;;;;29.43;27.30;101747.19;5032575;28;20060;-62
2022/07/12 11:46:23;;;;;;;5.75;2.00;;;;;;;29.33;27.66;101742.38;5029550;28;20112;-63
2022/07/12 11:48:50;;;;;;;3.55;1.90;;;;;;;29.12;29.14;101739.69;5027363;28;20054;-62